Time;durP1;ratioP1;P1;durP2;ratioP2;P2;SDS_P1;SDS_P2;PMS_P1;PMS_P2;Temp;Humidity;BMP_temperature;BMP_pressure;BME280_temperature;BME280_humidity;BME280_pressure;Samples;Min_cycle;Max_cycle;Signal;HPM_P1;HPM_P2
2024/01/11 00:02:18;;;;;;;14.30;5.72;;;-7.40;99.90;;;;;;5033496;28;20099;-75
2024/01/11 00:04:44;;;;;;;17.70;6.10;;;-7.40;99.90;;;;;;5031710;28;20072;-75
2024/01/11 00:07:10;;;;;;;12.15;6.05;;;-7.40;99.90;;;;;;5033053;28;20057;-74
2024/01/11 00:09:40;;;;;;;19.35;7.43;;;-7.30;99.90;;;;;;5032842;28;20026;-74
2024/01/11 00:12:06;;;;;;;16.75;6.50;;;-7.30;99.90;;;;;;5032889;28;20052;-75
2024/01/11 00:14:31;;;;;;;14.27;6.20;;;-7.30;99.90;;;;;;5032833;28;20509;-74
2024/01/11 00:16:57;;;;;;;16.42;5.97;;;-7.30;99.90;;;;;;5032817;28;20026;-75
2024/01/11 00:19:22;;;;;;;16.92;7.18;;;-7.20;99.90;;;;;;5032646;28;20061;-74
2024/01/11 00:21:48;;;;;;;18.48;7.07;;;-7.20;99.90;;;;;;5032538;28;20026;-75
2024/01/11 00:24:14;;;;;;;13.13;6.22;;;-7.30;99.90;;;;;;5033708;28;20058;-74
2024/01/11 00:26:41;;;;;;;17.33;6.18;;;-7.30;99.90;;;;;;5036849;28;20053;-75
2024/01/11 00:29:07;;;;;;;12.65;5.45;;;-7.30;99.90;;;;;;5036212;28;20034;-74
2024/01/11 00:31:33;;;;;;;14.48;5.68;;;-7.30;99.90;;;;;;5035222;28;20033;-75
2024/01/11 00:33:59;;;;;;;14.60;6.03;;;-7.30;99.90;;;;;;5036275;28;20041;-75
2024/01/11 00:36:25;;;;;;;11.88;4.90;;;-7.50;99.90;;;;;;5036479;28;20029;-75
2024/01/11 00:38:50;;;;;;;11.15;4.60;;;-7.50;99.90;;;;;;5034407;28;20379;-74
2024/01/11 00:41:16;;;;;;;12.70;5.18;;;-7.50;99.90;;;;;;5035825;28;20021;-75
2024/01/11 00:43:42;;;;;;;12.40;5.45;;;-7.50;99.90;;;;;;5034674;28;20068;-75
2024/01/11 00:46:08;;;;;;;10.50;4.78;;;-7.50;99.90;;;;;;5035922;28;20057;-75
2024/01/11 00:48:34;;;;;;;11.73;4.90;;;-7.50;99.90;;;;;;5035881;28;20029;-74
2024/01/11 00:50:59;;;;;;;12.60;5.65;;;-7.50;99.90;;;;;;5035909;28;20021;-75
2024/01/11 00:53:30;;;;;;;13.13;5.57;;;-7.50;99.90;;;;;;5035589;28;20025;-75
2024/01/11 00:55:56;;;;;;;12.20;5.03;;;-7.50;99.90;;;;;;5036086;28;20112;-74
2024/01/11 00:58:22;;;;;;;14.30;6.35;;;-7.50;99.90;;;;;;5034592;28;20452;-75
2024/01/11 01:00:48;;;;;;;14.13;5.75;;;-7.50;99.90;;;;;;5035789;28;20057;-75
2024/01/11 01:03:15;;;;;;;12.38;5.72;;;-7.50;99.90;;;;;;5035709;28;20021;-74
2024/01/11 01:05:42;;;;;;;13.57;5.95;;;-7.50;99.90;;;;;;5035615;28;20026;-75
2024/01/11 01:08:07;;;;;;;10.77;5.63;;;-7.50;99.90;;;;;;5035367;28;20021;-75
2024/01/11 01:10:33;;;;;;;13.80;6.30;;;-7.50;99.90;;;;;;5035527;28;20112;-75
2024/01/11 01:12:59;;;;;;;12.77;5.55;;;-7.50;99.90;;;;;;5035503;28;20481;-75
2024/01/11 01:15:24;;;;;;;13.70;6.40;;;-7.40;99.90;;;;;;5034317;28;20026;-75
2024/01/11 01:17:50;;;;;;;17.75;6.20;;;-7.40;99.90;;;;;;5035383;28;20033;-75
2024/01/11 01:20:15;;;;;;;12.48;6.32;;;-7.40;99.90;;;;;;5035619;28;20059;-75
2024/01/11 01:22:41;;;;;;;14.00;6.80;;;-7.50;99.90;;;;;;5035161;28;20065;-74
2024/01/11 01:25:07;;;;;;;14.15;6.15;;;-7.50;99.90;;;;;;5034876;28;20033;-74
2024/01/11 01:27:33;;;;;;;10.48;5.28;;;-7.50;99.90;;;;;;5035213;28;20025;-74
2024/01/11 01:29:58;;;;;;;11.40;5.22;;;-7.50;99.90;;;;;;5035460;28;20027;-74
2024/01/11 01:32:24;;;;;;;12.75;6.35;;;-7.50;99.90;;;;;;5034169;28;20022;-75
2024/01/11 01:34:50;;;;;;;12.38;4.95;;;-7.50;99.90;;;;;;5035007;28;20032;-75
2024/01/11 01:37:15;;;;;;;14.13;6.68;;;-7.50;99.90;;;;;;5035004;28;20038;-74
2024/01/11 01:39:42;;;;;;;15.20;5.55;;;-7.50;99.90;;;;;;5034926;28;20052;-75
2024/01/11 01:42:07;;;;;;;17.05;6.20;;;-7.50;99.90;;;;;;5034932;28;20367;-75
2024/01/11 01:44:33;;;;;;;15.63;5.78;;;-7.60;99.90;;;;;;5034705;28;20033;-75
2024/01/11 01:47:00;;;;;;;12.15;5.75;;;-7.60;99.90;;;;;;5035121;28;20026;-74
2024/01/11 01:49:26;;;;;;;15.50;5.82;;;-7.60;99.90;;;;;;5034587;28;20410;-74
2024/01/11 01:51:54;;;;;;;11.18;5.25;;;-7.60;99.90;;;;;;5033946;28;20028;-75
2024/01/11 01:54:22;;;;;;;14.48;6.78;;;-7.60;99.90;;;;;;5034724;28;20018;-75
2024/01/11 01:56:48;;;;;;;14.05;5.78;;;-7.50;99.90;;;;;;5033428;28;20029;-74
2024/01/11 01:59:16;;;;;;;13.32;5.95;;;-7.50;99.90;;;;;;5034496;28;20059;-75
2024/01/11 02:01:42;;;;;;;15.07;5.72;;;-7.50;99.90;;;;;;5033283;28;20057;-75
2024/01/11 02:04:08;;;;;;;13.27;4.95;;;-7.50;99.90;;;;;;5034105;28;20041;-74
2024/01/11 02:06:34;;;;;;;10.80;4.85;;;-7.50;99.90;;;;;;5034381;28;20132;-74
2024/01/11 02:09:03;;;;;;;13.30;5.20;;;-7.50;99.90;;;;;;5034019;28;20052;-75
2024/01/11 02:11:30;;;;;;;10.80;4.78;;;-7.50;99.90;;;;;;5033077;28;20028;-74
2024/01/11 02:13:56;;;;;;;9.60;4.68;;;-7.50;99.90;;;;;;5034378;28;20100;-75
2024/01/11 02:16:22;;;;;;;9.43;4.38;;;-7.50;99.90;;;;;;5033677;28;20465;-74
2024/01/11 02:18:48;;;;;;;9.68;4.22;;;-7.50;99.90;;;;;;5033025;28;20116;-75
2024/01/11 02:21:18;;;;;;;10.70;4.20;;;-7.50;99.90;;;;;;5034132;28;20033;-74
2024/01/11 02:23:46;;;;;;;12.52;5.05;;;-7.50;99.90;;;;;;5034240;28;20100;-75
2024/01/11 02:26:16;;;;;;;9.65;4.40;;;-7.50;99.90;;;;;;5034037;28;20037;-75
2024/01/11 02:28:45;;;;;;;9.85;4.57;;;-7.50;99.90;;;;;;5032614;28;20021;-74
2024/01/11 02:31:13;;;;;;;8.13;4.13;;;-7.50;99.90;;;;;;5033996;28;20029;-74
2024/01/11 02:33:39;;;;;;;10.85;4.53;;;-7.50;99.90;;;;;;5034240;28;20029;-75
2024/01/11 02:36:06;;;;;;;14.57;5.45;;;-7.40;99.90;;;;;;5033959;28;20032;-74
2024/01/11 02:38:33;;;;;;;15.02;5.20;;;-7.50;99.90;;;;;;5033545;28;20034;-74
2024/01/11 02:41:00;;;;;;;11.90;5.18;;;-7.50;99.90;;;;;;5033864;28;20032;-74
2024/01/11 02:43:26;;;;;;;13.60;5.50;;;-7.60;99.90;;;;;;5033838;28;20034;-74
2024/01/11 02:45:55;;;;;;;13.00;5.47;;;-7.70;99.90;;;;;;5033543;28;20036;-75
2024/01/11 02:48:21;;;;;;;13.38;5.32;;;-7.80;99.90;;;;;;5032975;28;20072;-75
2024/01/11 02:50:50;;;;;;;13.80;4.97;;;-7.90;99.90;;;;;;5033661;28;20025;-75
2024/01/11 02:53:16;;;;;;;14.13;4.78;;;-8.00;99.90;;;;;;5032194;28;20030;-75
2024/01/11 02:55:41;;;;;;;12.82;5.10;;;-8.10;99.90;;;;;;5033646;28;20033;-74
2024/01/11 02:58:07;;;;;;;11.50;4.80;;;-8.10;99.90;;;;;;5033686;28;20068;-75
2024/01/11 03:00:33;;;;;;;10.77;4.70;;;-8.10;99.90;;;;;;5033536;28;20044;-75
2024/01/11 03:02:58;;;;;;;14.32;5.03;;;-8.10;99.90;;;;;;5033809;28;20029;-75
2024/01/11 03:05:24;;;;;;;12.20;5.25;;;-8.00;99.90;;;;;;5032143;28;20033;-75
2024/01/11 03:07:51;;;;;;;12.82;4.93;;;-7.90;99.90;;;;;;5031936;28;20052;-74
2024/01/11 03:10:16;;;;;;;11.57;5.05;;;-7.90;99.90;;;;;;5033501;28;20021;-75
2024/01/11 03:12:42;;;;;;;14.07;5.63;;;-7.90;99.90;;;;;;5033444;28;20064;-75
2024/01/11 03:15:08;;;;;;;19.40;6.45;;;-7.80;99.90;;;;;;5033421;28;20536;-74
2024/01/11 03:17:34;;;;;;;14.68;5.55;;;-7.80;99.90;;;;;;5033308;28;20025;-75
2024/01/11 03:19:59;;;;;;;16.52;5.90;;;-7.80;99.90;;;;;;5033270;28;20477;-75
2024/01/11 03:22:25;;;;;;;15.00;5.85;;;-7.70;99.90;;;;;;5033104;28;20026;-75
2024/01/11 03:24:51;;;;;;;12.82;5.22;;;-7.70;99.90;;;;;;5015579;28;20474;-75
2024/01/11 03:27:17;;;;;;;13.80;5.63;;;-7.70;99.90;;;;;;5033247;28;20037;-74
2024/01/11 03:29:42;;;;;;;11.65;4.43;;;-7.70;99.90;;;;;;5033355;28;20025;-74
2024/01/11 03:32:08;;;;;;;16.17;5.63;;;-7.70;99.90;;;;;;5033429;28;20389;-75
2024/01/11 03:34:34;;;;;;;16.02;5.68;;;-7.70;99.90;;;;;;5031741;28;20029;-74
2024/01/11 03:36:59;;;;;;;14.18;5.88;;;-7.70;99.90;;;;;;5033480;28;20037;-74
2024/01/11 03:39:25;;;;;;;18.52;6.05;;;-7.70;99.90;;;;;;5031284;28;20030;-74
2024/01/11 03:41:51;;;;;;;15.48;6.18;;;-7.70;99.90;;;;;;5033436;28;20017;-74
2024/01/11 03:44:17;;;;;;;16.88;6.22;;;-7.70;99.90;;;;;;5033134;28;20032;-75
2024/01/11 03:46:42;;;;;;;18.45;6.55;;;-7.70;99.90;;;;;;5031792;28;20041;-75
2024/01/11 03:49:08;;;;;;;16.95;6.18;;;-7.80;99.90;;;;;;5032852;28;20060;-74
2024/01/11 03:51:34;;;;;;;20.60;6.95;;;-7.80;99.90;;;;;;5031817;28;20025;-74
2024/01/11 03:54:00;;;;;;;22.25;6.80;;;-7.80;99.90;;;;;;5031549;28;20375;-74
2024/01/11 03:56:26;;;;;;;17.58;6.63;;;-7.70;99.90;;;;;;5033052;28;20060;-74
2024/01/11 03:58:51;;;;;;;19.45;7.32;;;-7.70;99.90;;;;;;5034922;28;20037;-74
2024/01/11 04:01:17;;;;;;;20.38;7.10;;;-7.80;99.90;;;;;;5036774;28;20084;-74
2024/01/11 04:03:42;;;;;;;13.73;6.30;;;-7.80;99.90;;;;;;5036770;28;20585;-75
2024/01/11 04:06:08;;;;;;;21.38;7.22;;;-7.90;99.90;;;;;;5036778;28;20033;-74
2024/01/11 04:08:34;;;;;;;16.20;5.90;;;-7.90;99.90;;;;;;5036491;28;20497;-74
2024/01/11 04:11:03;;;;;;;14.27;6.25;;;-7.90;99.90;;;;;;5036713;28;20493;-74
2024/01/11 04:13:29;;;;;;;20.83;8.38;;;-7.90;99.90;;;;;;5035368;28;20029;-74
2024/01/11 04:15:55;;;;;;;17.20;6.68;;;-7.80;99.90;;;;;;5035360;28;20036;-75
2024/01/11 04:18:20;;;;;;;14.90;6.38;;;-7.80;99.90;;;;;;5036476;28;20044;-74
2024/01/11 04:20:46;;;;;;;14.98;6.40;;;-7.80;99.90;;;;;;5035469;28;20393;-74
2024/01/11 04:23:12;;;;;;;13.63;5.32;;;-7.70;99.90;;;;;;5036315;28;20041;-74
2024/01/11 04:25:37;;;;;;;13.00;5.30;;;-7.70;99.90;;;;;;5036639;28;20030;-74
2024/01/11 04:28:03;;;;;;;12.98;4.90;;;-7.70;99.90;;;;;;5036018;28;20045;-74
2024/01/11 04:30:29;;;;;;;11.48;5.10;;;-7.70;99.90;;;;;;5035287;28;20547;-74
2024/01/11 04:32:55;;;;;;;14.35;5.80;;;-7.70;99.90;;;;;;5036277;28;20029;-74
2024/01/11 04:35:20;;;;;;;14.80;5.45;;;-7.60;99.90;;;;;;5035172;28;20037;-74
2024/01/11 04:37:46;;;;;;;15.77;5.65;;;-7.60;99.90;;;;;;5034771;28;20053;-74
2024/01/11 04:40:12;;;;;;;16.00;5.88;;;-7.60;99.90;;;;;;5036272;28;20117;-74
2024/01/11 04:42:37;;;;;;;16.35;5.82;;;-7.60;99.90;;;;;;5036153;28;20041;-75
2024/01/11 04:45:04;;;;;;;20.70;6.70;;;-7.60;99.90;;;;;;5036043;28;20117;-75
2024/01/11 04:47:30;;;;;;;16.48;6.20;;;-7.60;99.90;;;;;;5035999;28;20040;-74
2024/01/11 04:49:56;;;;;;;14.02;5.68;;;-7.60;99.90;;;;;;5035996;28;20397;-74
2024/01/11 04:52:21;;;;;;;16.80;6.78;;;-7.70;99.90;;;;;;5036461;28;20156;-74
2024/01/11 04:54:47;;;;;;;17.13;7.00;;;-7.80;99.90;;;;;;5034407;28;20025;-74
2024/01/11 04:57:13;;;;;;;16.40;5.78;;;-7.70;99.90;;;;;;5035755;28;20064;-74
2024/01/11 04:59:38;;;;;;;23.75;6.82;;;-7.70;99.90;;;;;;5035763;28;20026;-74
2024/01/11 05:02:04;;;;;;;18.00;6.65;;;-7.70;99.90;;;;;;5035655;28;20037;-74
2024/01/11 05:04:30;;;;;;;15.20;6.72;;;-7.60;99.90;;;;;;5035701;28;20029;-74
2024/01/11 05:06:56;;;;;;;18.67;7.00;;;-7.60;99.90;;;;;;5035589;28;20105;-73
2024/01/11 05:09:21;;;;;;;16.42;6.72;;;-7.60;99.90;;;;;;5034975;28;20085;-74
2024/01/11 05:11:47;;;;;;;17.30;6.55;;;-7.60;99.90;;;;;;5035240;28;20049;-74
2024/01/11 05:14:13;;;;;;;15.02;6.55;;;-7.60;99.90;;;;;;5035763;28;20030;-73
2024/01/11 05:16:39;;;;;;;14.05;5.35;;;-7.60;99.90;;;;;;5035517;28;20104;-74
2024/01/11 05:19:04;;;;;;;14.20;5.50;;;-7.60;99.90;;;;;;5035451;28;20026;-74
2024/01/11 05:21:33;;;;;;;14.48;5.82;;;-7.60;99.90;;;;;;5035447;28;20029;-74
2024/01/11 05:23:58;;;;;;;15.00;6.38;;;-7.60;99.90;;;;;;5035115;28;20035;-74
2024/01/11 05:26:25;;;;;;;15.23;6.00;;;-7.60;99.90;;;;;;5035214;28;20041;-74
2024/01/11 05:28:51;;;;;;;16.30;5.90;;;-7.60;99.90;;;;;;5033792;28;20461;-75
2024/01/11 05:31:17;;;;;;;15.18;5.60;;;-7.60;99.90;;;;;;5035619;28;20022;-74
2024/01/11 05:33:43;;;;;;;13.63;5.95;;;-7.70;99.90;;;;;;5035080;28;20053;-74
2024/01/11 05:36:09;;;;;;;16.27;6.50;;;-7.80;99.90;;;;;;5035089;28;20059;-74
2024/01/11 05:38:35;;;;;;;14.50;5.45;;;-7.80;99.90;;;;;;5034823;28;20109;-74
2024/01/11 05:41:01;;;;;;;13.35;6.10;;;-7.80;99.90;;;;;;5034975;28;20025;-74
2024/01/11 05:43:27;;;;;;;14.48;7.00;;;-7.80;99.90;;;;;;5033760;28;20478;-74
2024/01/11 05:45:53;;;;;;;20.38;7.18;;;-7.80;99.90;;;;;;5034764;28;20041;-74
2024/01/11 05:48:18;;;;;;;14.32;6.82;;;-7.80;99.90;;;;;;5034611;28;20108;-74
2024/01/11 05:50:44;;;;;;;17.48;7.07;;;-7.90;99.90;;;;;;5035103;28;20021;-74
2024/01/11 05:53:11;;;;;;;20.45;7.72;;;-7.90;99.90;;;;;;5034570;28;20461;-73
2024/01/11 05:55:37;;;;;;;19.95;7.63;;;-7.90;99.90;;;;;;5035037;28;20033;-74
2024/01/11 05:58:03;;;;;;;18.70;7.68;;;-7.90;99.90;;;;;;5035154;28;20513;-74
2024/01/11 06:00:29;;;;;;;17.00;7.95;;;-7.90;99.90;;;;;;5034838;28;20037;-74
2024/01/11 06:02:55;;;;;;;21.98;7.88;;;-7.80;99.90;;;;;;5034548;28;20378;-75
2024/01/11 06:05:20;;;;;;;15.82;7.30;;;-7.80;99.90;;;;;;5034470;28;20052;-74
2024/01/11 06:07:47;;;;;;;14.38;5.78;;;-7.80;99.90;;;;;;5034279;28;20021;-73
2024/01/11 06:10:13;;;;;;;16.25;6.68;;;-7.80;99.90;;;;;;5034401;28;20033;-74
2024/01/11 06:12:39;;;;;;;15.60;6.47;;;-7.90;99.90;;;;;;5034928;28;20462;-74
2024/01/11 06:15:05;;;;;;;15.55;6.88;;;-7.90;99.90;;;;;;5033162;28;20572;-75
2024/01/11 06:17:31;;;;;;;19.92;7.18;;;-7.90;99.90;;;;;;5032918;28;20497;-74
2024/01/11 06:19:56;;;;;;;21.17;8.18;;;-8.00;99.90;;;;;;5034273;28;20040;-74
2024/01/11 06:22:22;;;;;;;20.00;8.23;;;-7.90;99.90;;;;;;5033219;28;20033;-75
2024/01/11 06:24:48;;;;;;;18.90;8.88;;;-7.90;99.90;;;;;;5032637;28;20108;-74
2024/01/11 06:27:14;;;;;;;20.70;8.07;;;-7.90;99.90;;;;;;5033457;28;20025;-73
2024/01/11 06:29:39;;;;;;;19.20;7.28;;;-7.90;99.90;;;;;;5032910;28;20531;-74
2024/01/11 06:32:06;;;;;;;21.95;8.93;;;-7.90;99.90;;;;;;5032924;28;20454;-74
2024/01/11 06:34:31;;;;;;;22.10;8.80;;;-7.90;99.90;;;;;;5032918;28;20106;-74
2024/01/11 06:36:57;;;;;;;27.67;10.80;;;-7.90;99.90;;;;;;5034282;28;20500;-74
2024/01/11 06:39:23;;;;;;;24.00;9.68;;;-7.90;99.90;;;;;;5033620;28;20052;-73
2024/01/11 06:41:48;;;;;;;22.25;9.85;;;-7.90;99.90;;;;;;5033975;28;20052;-74
2024/01/11 06:44:14;;;;;;;33.45;12.40;;;-7.90;99.90;;;;;;5033811;28;20047;-74
2024/01/11 06:46:41;;;;;;;29.73;10.75;;;-7.90;99.90;;;;;;5033727;28;20495;-74
2024/01/11 06:49:07;;;;;;;28.50;11.70;;;-8.00;99.90;;;;;;5033605;28;20072;-73
2024/01/11 06:51:33;;;;;;;27.50;10.50;;;-8.00;99.90;;;;;;5034247;28;20029;-74
2024/01/11 06:54:00;;;;;;;25.25;10.65;;;-8.00;99.90;;;;;;5033534;28;20029;-74
2024/01/11 06:56:27;;;;;;;27.83;10.52;;;-8.00;99.90;;;;;;5033420;28;20047;-73
2024/01/11 06:58:52;;;;;;;27.67;11.02;;;-8.00;99.90;;;;;;5033452;28;20086;-74
2024/01/11 07:01:18;;;;;;;17.00;6.47;;;-8.00;99.90;;;;;;5033633;28;20055;-74
2024/01/11 07:03:44;;;;;;;17.00;7.05;;;-8.00;99.90;;;;;;5033338;28;20385;-74
2024/01/11 07:06:10;;;;;;;19.05;6.93;;;-8.10;99.90;;;;;;5033455;28;20025;-74
2024/01/11 07:08:35;;;;;;;17.95;6.90;;;-8.20;99.90;;;;;;5033256;28;20024;-73
2024/01/11 07:11:02;;;;;;;29.80;11.25;;;-8.30;99.90;;;;;;5032240;28;20048;-74
2024/01/11 07:13:29;;;;;;;83.53;30.73;;;-8.30;99.90;;;;;;5033378;28;20022;-74
2024/01/11 07:15:55;;;;;;;104.95;41.47;;;-8.30;99.90;;;;;;5033630;28;20025;-74
2024/01/11 07:18:21;;;;;;;25.13;10.68;;;-8.30;99.90;;;;;;5032180;28;20021;-74
2024/01/11 07:20:47;;;;;;;19.20;8.30;;;-8.30;99.90;;;;;;5032120;28;20038;-74
2024/01/11 07:23:14;;;;;;;21.40;7.97;;;-8.30;99.90;;;;;;5033351;28;20518;-73
2024/01/11 07:25:40;;;;;;;18.50;7.78;;;-8.30;99.90;;;;;;5033488;28;20034;-74
2024/01/11 07:28:06;;;;;;;22.17;9.32;;;-8.30;99.90;;;;;;5033244;28;20029;-74
2024/01/11 07:30:32;;;;;;;22.67;9.90;;;-8.40;99.90;;;;;;5033251;28;20032;-74
2024/01/11 07:32:58;;;;;;;23.48;10.48;;;-8.40;99.90;;;;;;5033887;28;20100;-74
2024/01/11 07:35:24;;;;;;;28.58;11.27;;;-8.40;99.90;;;;;;5036201;28;20489;-74
2024/01/11 07:37:49;;;;;;;26.55;12.30;;;-8.30;99.90;;;;;;5037209;28;20053;-74
2024/01/11 07:40:16;;;;;;;23.23;10.32;;;-8.30;99.90;;;;;;5037035;28;20025;-73
2024/01/11 07:42:42;;;;;;;26.58;11.68;;;-8.20;99.90;;;;;;5037746;28;20029;-74
2024/01/11 07:45:12;;;;;;;28.40;12.45;;;-8.20;99.90;;;;;;5037114;28;20033;-74
2024/01/11 07:47:39;;;;;;;33.08;14.23;;;-8.10;99.90;;;;;;5036988;28;20397;-74
2024/01/11 07:50:12;;;;;;;33.60;14.63;;;-8.10;99.90;;;;;;5035776;28;20100;-73
2024/01/11 07:52:38;;;;;;;27.20;13.02;;;-8.10;99.90;;;;;;5037372;28;20025;-74
2024/01/11 07:55:07;;;;;;;28.42;11.25;;;-8.10;99.90;;;;;;5036734;28;20026;-74
2024/01/11 07:57:37;;;;;;;28.70;12.88;;;-8.10;99.90;;;;;;5036861;28;20497;-74
2024/01/11 08:00:06;;;;;;;23.77;11.88;;;-8.10;99.90;;;;;;5037457;28;20037;-74
2024/01/11 08:02:32;;;;;;;28.75;12.13;;;-8.10;99.90;;;;;;5036825;28;20036;-74
2024/01/11 08:04:59;;;;;;;30.67;13.07;;;-8.00;99.90;;;;;;5036698;28;20075;-73
2024/01/11 08:07:27;;;;;;;30.10;14.02;;;-8.10;99.90;;;;;;5036744;28;20384;-74
2024/01/11 08:09:53;;;;;;;29.50;14.93;;;-8.00;99.90;;;;;;5036662;28;20596;-74
2024/01/11 08:12:19;;;;;;;20.05;7.53;;;-8.00;99.90;;;;;;5036707;28;20048;-74
2024/01/11 08:14:46;;;;;;;17.67;7.72;;;-8.00;99.90;;;;;;5035981;28;20030;-74
2024/01/11 08:17:13;;;;;;;16.58;7.47;;;-8.10;99.90;;;;;;5036445;28;20026;-74
2024/01/11 08:19:39;;;;;;;17.05;7.55;;;-8.10;99.90;;;;;;5036854;28;20026;-74
2024/01/11 08:22:05;;;;;;;15.40;5.80;;;-8.20;99.90;;;;;;5036527;28;20022;-74
2024/01/11 08:24:31;;;;;;;17.73;6.93;;;-8.10;99.90;;;;;;5036320;28;20100;-74
2024/01/11 08:26:57;;;;;;;15.55;7.05;;;-8.00;99.90;;;;;;5036364;28;20434;-74
2024/01/11 08:29:23;;;;;;;18.92;8.27;;;-7.90;99.90;;;;;;5036354;28;20026;-74
2024/01/11 08:31:49;;;;;;;23.17;9.52;;;-7.90;99.90;;;;;;5036343;28;20385;-74
2024/01/11 08:34:14;;;;;;;15.75;6.18;;;-7.90;99.90;;;;;;5036557;28;20021;-74
2024/01/11 08:36:40;;;;;;;11.20;5.90;;;-7.90;99.90;;;;;;5036209;28;20041;-74
2024/01/11 08:39:07;;;;;;;21.10;9.55;;;-7.80;99.90;;;;;;5035999;28;20105;-73
2024/01/11 08:41:33;;;;;;;22.83;9.55;;;-7.80;99.90;;;;;;5034850;28;20034;-74
2024/01/11 08:43:59;;;;;;;29.35;12.50;;;-7.80;99.90;;;;;;5035940;28;20063;-74
2024/01/11 08:46:26;;;;;;;38.45;15.70;;;-7.70;99.90;;;;;;5035083;28;20080;-74
2024/01/11 08:48:55;;;;;;;43.15;18.92;;;-7.70;99.90;;;;;;5035805;28;20156;-74
2024/01/11 08:51:21;;;;;;;55.83;27.13;;;-7.70;99.90;;;;;;5035871;28;20021;-73
2024/01/11 08:53:47;;;;;;;47.63;21.52;;;-7.70;99.90;;;;;;5036094;28;20431;-73
2024/01/11 08:56:13;;;;;;;36.75;18.70;;;-7.70;99.90;;;;;;5036036;28;20034;-74
2024/01/11 08:58:42;;;;;;;34.28;15.05;;;-7.70;99.90;;;;;;5035268;28;20071;-74
2024/01/11 09:01:08;;;;;;;24.05;10.38;;;-7.70;99.90;;;;;;5035854;28;20420;-74
2024/01/11 09:03:37;;;;;;;19.40;9.00;;;-7.60;99.90;;;;;;5035883;28;20033;-74
2024/01/11 09:06:03;;;;;;;22.10;8.02;;;-7.60;99.90;;;;;;5034360;28;20040;-74
2024/01/11 09:08:29;;;;;;;19.42;7.95;;;-7.50;99.90;;;;;;5035324;28;20474;-74
2024/01/11 09:10:56;;;;;;;18.75;7.05;;;-7.60;99.90;;;;;;5035822;28;20049;-74
2024/01/11 09:13:21;;;;;;;15.52;7.38;;;-7.60;99.90;;;;;;5035424;28;20017;-73
2024/01/11 09:15:47;;;;;;;17.23;7.18;;;-7.60;99.90;;;;;;5035549;28;20478;-74
2024/01/11 09:18:13;;;;;;;15.02;7.00;;;-7.60;99.90;;;;;;5035565;28;20393;-74
2024/01/11 09:20:38;;;;;;;15.85;6.13;;;-7.50;99.90;;;;;;5034108;28;20389;-74
2024/01/11 09:23:05;;;;;;;15.70;7.20;;;-7.40;99.90;;;;;;5035672;28;20385;-74
2024/01/11 09:25:31;;;;;;;17.35;6.38;;;-7.30;99.90;;;;;;5034978;28;20025;-73
2024/01/11 09:27:57;;;;;;;20.23;7.38;;;-7.20;99.90;;;;;;5035169;28;20036;-74
2024/01/11 09:30:22;;;;;;;16.48;6.40;;;-7.10;99.90;;;;;;5035255;28;20051;-75
2024/01/11 09:32:48;;;;;;;19.35;7.18;;;-7.10;99.90;;;;;;5035489;28;20034;-74
2024/01/11 09:35:14;;;;;;;18.42;7.47;;;-7.00;99.90;;;;;;5035447;28;20030;-74
2024/01/11 09:37:40;;;;;;;19.60;6.50;;;-6.90;99.90;;;;;;5033898;28;20026;-74
2024/01/11 09:40:10;;;;;;;17.55;7.88;;;-6.90;99.90;;;;;;5034882;28;20044;-74
2024/01/11 09:42:39;;;;;;;18.85;7.13;;;-6.90;99.90;;;;;;5035010;28;20091;-74
2024/01/11 09:45:17;;;;;;;16.77;7.00;;;-6.90;99.90;;;;;;5034862;28;20033;-74
2024/01/11 09:47:45;;;;;;;16.00;6.72;;;-6.80;99.90;;;;;;5034716;28;20493;-74
2024/01/11 09:50:17;;;;;;;17.60;7.38;;;-6.80;99.90;;;;;;5034907;28;20025;-74
2024/01/11 09:52:47;;;;;;;18.45;7.25;;;-6.70;99.90;;;;;;5034761;28;20025;-74
2024/01/11 09:55:13;;;;;;;21.13;8.35;;;-6.60;99.90;;;;;;5033307;28;20501;-73
2024/01/11 09:57:44;;;;;;;17.42;6.97;;;-6.60;99.90;;;;;;5034476;28;20123;-74
2024/01/11 10:00:12;;;;;;;;;;;-6.60;99.90;;;;;;5035426;28;20044;-75
2024/01/11 10:02:39;;;;;;;14.55;6.53;;;-6.50;99.90;;;;;;5034681;28;19947;-74
2024/01/11 10:05:05;;;;;;;17.65;8.05;;;-6.50;99.90;;;;;;5034454;28;20022;-74
2024/01/11 10:07:34;;;;;;;21.85;8.15;;;-6.30;99.90;;;;;;5034535;28;20026;-74
2024/01/11 10:10:00;;;;;;;53.08;18.58;;;-6.20;99.90;;;;;;5034201;28;20108;-73
2024/01/11 10:12:28;;;;;;;142.98;34.90;;;-6.10;99.90;;;;;;5034425;28;20025;-74
2024/01/11 10:14:54;;;;;;;157.73;40.33;;;-6.00;99.90;;;;;;5034362;28;20060;-74
2024/01/11 10:17:20;;;;;;;145.02;39.22;;;-5.90;99.90;;;;;;5034291;28;20469;-74
2024/01/11 10:19:46;;;;;;;65.85;21.17;;;-5.80;99.90;;;;;;5033725;28;20037;-74
2024/01/11 10:22:17;;;;;;;46.45;15.02;;;-5.70;99.90;;;;;;5034182;28;20060;-74
2024/01/11 10:24:43;;;;;;;33.42;10.50;;;-5.70;99.90;;;;;;5034105;28;20028;-74
2024/01/11 10:27:09;;;;;;;18.33;7.78;;;-5.60;99.90;;;;;;5034125;28;20668;-74
2024/01/11 10:29:38;;;;;;;23.73;9.15;;;-5.60;99.90;;;;;;5034093;28;20502;-74
2024/01/11 10:32:04;;;;;;;24.92;8.30;;;-5.50;99.90;;;;;;5034028;28;20030;-74
2024/01/11 10:34:30;;;;;;;18.38;8.48;;;-5.50;99.90;;;;;;5032852;28;20413;-74
2024/01/11 10:36:56;;;;;;;24.88;10.23;;;-5.40;99.90;;;;;;5034002;28;20030;-74
2024/01/11 10:39:27;;;;;;;26.48;10.05;;;-5.30;99.90;;;;;;5033637;28;20033;-74
2024/01/11 10:42:05;;;;;;;25.52;10.15;;;-5.20;99.90;;;;;;5033932;28;20040;-74
2024/01/11 10:44:34;;;;;;;26.55;9.35;;;-5.20;99.90;;;;;;5033917;28;20034;-74
2024/01/11 10:47:03;;;;;;;26.10;10.30;;;-5.20;99.90;;;;;;5033765;28;20030;-74
2024/01/11 10:49:32;;;;;;;20.92;9.60;;;-5.10;99.90;;;;;;5033709;28;20429;-74
2024/01/11 10:52:06;;;;;;;26.20;11.13;;;-5.00;99.90;;;;;;5034105;28;20021;-73
2024/01/11 10:54:34;;;;;;;28.38;12.82;;;-5.00;99.90;;;;;;5033538;28;20033;-74
2024/01/11 10:57:00;;;;;;;31.13;13.82;;;-4.90;99.90;;;;;;5033680;28;20032;-74
2024/01/11 10:59:27;;;;;;;33.08;12.95;;;-4.80;99.90;;;;;;5033605;28;20088;-74
2024/01/11 11:01:59;;;;;;;32.83;12.88;;;-4.80;99.90;;;;;;5033591;28;20127;-75
2024/01/11 11:04:26;;;;;;;31.42;12.57;;;-4.70;99.90;;;;;;5013878;28;20486;-74
2024/01/11 11:06:56;;;;;;;28.00;12.88;;;-4.60;99.90;;;;;;5012608;28;20113;-74
2024/01/11 11:09:22;;;;;;;28.35;13.10;;;-4.50;99.90;;;;;;5014563;28;20065;-73
2024/01/11 11:11:49;;;;;;;29.95;12.80;;;-4.40;99.90;;;;;;5033763;28;20389;-74
2024/01/11 11:14:17;;;;;;;25.60;12.27;;;-4.30;99.90;;;;;;5033414;28;20143;-75
2024/01/11 11:16:45;;;;;;;40.33;14.13;;;-4.20;99.90;;;;;;5033701;28;20029;-75
2024/01/11 11:19:12;;;;;;;32.08;14.57;;;-4.10;99.90;;;;;;5033325;28;20036;-75
2024/01/11 11:21:48;;;;;;;38.88;16.42;;;-4.10;99.90;;;;;;5033579;28;20056;-74
2024/01/11 11:24:16;;;;;;;40.53;14.63;;;-4.10;99.90;;;;;;5031828;28;20073;-74
2024/01/11 11:26:42;;;;;;;35.83;13.85;;;-4.00;99.90;;;;;;5033270;28;20507;-75
2024/01/11 11:29:09;;;;;;;33.72;14.48;;;-4.00;99.90;;;;;;5032159;28;20561;-74
2024/01/11 11:31:47;;;;;;;41.65;15.68;;;-3.90;99.90;;;;;;5033290;28;20061;-73
2024/01/11 11:34:13;;;;;;;36.92;18.38;;;-3.90;99.90;;;;;;5031603;28;20025;-74
2024/01/11 11:36:45;;;;;;;27.98;13.52;;;-3.80;99.90;;;;;;5033495;28;20490;-74
2024/01/11 11:39:11;;;;;;;21.95;10.90;;;-3.80;99.90;;;;;;5032910;28;20116;-73
2024/01/11 11:41:38;;;;;;;18.90;10.68;;;-3.70;99.90;;;;;;5033171;28;20057;-75
2024/01/11 11:44:05;;;;;;;20.20;10.25;;;-3.60;99.90;;;;;;5031947;28;20025;-74
2024/01/11 11:46:33;;;;;;;19.77;11.23;;;-3.50;99.90;;;;;;5033086;28;20029;-74
2024/01/11 11:48:59;;;;;;;27.10;12.25;;;-3.40;99.90;;;;;;5032929;28;20124;-74
2024/01/11 11:51:25;;;;;;;25.40;12.77;;;-3.30;99.90;;;;;;5033066;28;20025;-74
2024/01/11 11:53:52;;;;;;;25.35;13.13;;;-3.30;99.90;;;;;;5032811;28;20021;-74
2024/01/11 11:56:19;;;;;;;26.70;13.30;;;-3.20;99.90;;;;;;5032622;28;20036;-73
2024/01/11 11:58:46;;;;;;;28.80;12.85;;;-3.20;99.90;;;;;;5033543;28;20363;-74
2024/01/11 12:01:13;;;;;;;28.27;13.10;;;-3.10;99.90;;;;;;5031807;28;20033;-74
2024/01/11 12:03:42;;;;;;;34.42;13.27;;;-3.00;99.90;;;;;;5032538;28;20029;-74
2024/01/11 12:06:10;;;;;;;29.60;13.68;;;-2.90;99.90;;;;;;5032931;28;20041;-75
2024/01/11 12:08:36;;;;;;;30.83;13.73;;;-2.80;99.90;;;;;;5031666;28;20458;-74
2024/01/11 12:11:03;;;;;;;32.97;14.35;;;-2.80;99.90;;;;;;5032745;28;20037;-73
2024/01/11 12:13:30;;;;;;;30.38;13.52;;;-2.70;99.90;;;;;;5033244;28;20014;-74
2024/01/11 12:15:56;;;;;;;27.90;12.90;;;-2.70;99.90;;;;;;5033118;28;20022;-75
2024/01/11 12:18:22;;;;;;;28.48;12.00;;;-2.70;99.90;;;;;;5032701;28;20040;-74
2024/01/11 12:20:48;;;;;;;26.08;12.68;;;-2.70;99.90;;;;;;5036569;28;20536;-74
2024/01/11 12:23:14;;;;;;;23.25;11.70;;;-2.60;99.90;;;;;;5036319;28;20033;-74
2024/01/11 12:25:43;;;;;;;31.60;12.13;;;-2.50;99.90;;;;;;5036262;28;20029;-74
2024/01/11 12:28:10;;;;;;;24.52;11.60;;;-2.50;99.90;;;;;;5035223;28;20037;-74
2024/01/11 12:30:35;;;;;;;24.85;10.98;;;-2.50;99.90;;;;;;5035485;28;20416;-75